Time;durP1;ratioP1;P1;durP2;ratioP2;P2;SDS_P1;SDS_P2;PMS_P1;PMS_P2;Temp;Humidity;BMP_temperature;BMP_pressure;BME280_temperature;BME280_humidity;BME280_pressure;Samples;Min_cycle;Max_cycle;Signal;HPM_P1;HPM_P2
2023/10/02 00:01:17;;;;;;;17.75;13.45;;;;;;;12.68;100.00;96915.22;6295660;22;20007;-76
2023/10/02 00:03:46;;;;;;;18.17;13.27;;;;;;;12.64;100.00;96912.03;6340018;22;20002;-76
2023/10/02 00:06:16;;;;;;;18.33;13.85;;;;;;;12.62;100.00;96908.66;6312148;22;20006;-76
2023/10/02 00:08:42;;;;;;;18.67;12.98;;;;;;;12.60;100.00;96898.22;6311526;22;20460;-76
2023/10/02 00:11:41;;;;;;;16.63;12.40;;;;;;;12.56;100.00;96904.72;6312115;22;19995;-76
2023/10/02 00:14:25;;;;;;;15.55;13.18;;;;;;;12.55;100.00;96892.47;6308019;22;20014;-76
2023/10/02 00:17:04;;;;;;;18.45;13.02;;;;;;;12.53;100.00;96893.56;6309212;22;20030;-76
2023/10/02 00:19:40;;;;;;;18.15;13.02;;;;;;;12.53;100.00;96890.91;6308348;22;20026;-76
2023/10/02 00:22:34;;;;;;;17.00;13.13;;;;;;;12.50;100.00;96886.72;6283578;22;20379;-76
2023/10/02 00:25:19;;;;;;;16.25;13.65;;;;;;;12.45;100.00;96880.97;6307832;22;20003;-76
2023/10/02 00:27:50;;;;;;;19.25;13.10;;;;;;;12.42;100.00;96886.50;6309770;22;20019;-75
2023/10/02 00:30:20;;;;;;;19.15;13.85;;;;;;;12.42;100.00;96886.50;6311442;22;20678;-77
2023/10/02 00:32:55;;;;;;;20.55;13.02;;;;;;;12.42;100.00;96883.84;6309066;22;20003;-75
2023/10/02 00:35:22;;;;;;;17.70;14.00;;;;;;;12.41;100.00;96884.81;6309548;22;20007;-76
2023/10/02 00:37:48;;;;;;;21.13;14.10;;;;;;;12.41;100.00;96884.81;6310781;22;20074;-76
2023/10/02 00:40:14;;;;;;;18.00;13.10;;;;;;;12.38;100.00;96885.06;6311148;22;20500;-76
2023/10/02 00:42:42;;;;;;;16.63;13.15;;;;;;;12.38;100.00;96879.78;6308947;22;20062;-76
2023/10/02 00:45:13;;;;;;;16.98;13.35;;;;;;;12.38;100.00;96882.44;6284046;22;20027;-76
2023/10/02 00:47:45;;;;;;;15.77;13.07;;;;;;;12.37;100.00;96878.13;6310577;22;20003;-76
2023/10/02 00:50:19;;;;;;;16.42;12.98;;;;;;;12.37;100.00;96884.22;6310405;22;20335;-76
2023/10/02 00:52:49;;;;;;;18.70;14.00;;;;;;;12.35;100.00;96878.22;6308900;22;20400;-76
2023/10/02 00:55:20;;;;;;;21.42;13.80;;;;;;;12.32;100.00;96881.13;6309408;22;20025;-75
2023/10/02 00:57:56;;;;;;;18.35;13.40;;;;;;;12.28;100.00;96877.91;6308728;22;20011;-76
2023/10/02 01:00:36;;;;;;;19.67;13.40;;;;;;;12.25;100.00;96872.84;6309126;22;20003;-76
2023/10/02 01:03:08;;;;;;;16.20;13.13;;;;;;;12.26;100.00;96869.25;6285236;22;20003;-75
2023/10/02 01:05:41;;;;;;;18.50;13.88;;;;;;;12.25;100.00;96870.22;6308477;22;20134;-76
2023/10/02 01:08:24;;;;;;;16.20;13.35;;;;;;;12.26;100.00;96868.41;6308322;22;20064;-76
2023/10/02 01:11:06;;;;;;;15.82;13.10;;;;;;;12.26;100.00;96866.59;6285124;22;20003;-75
2023/10/02 01:13:34;;;;;;;18.33;13.38;;;;;;;12.28;100.00;96858.56;6316106;22;20089;-75
2023/10/02 01:16:08;;;;;;;22.73;12.85;;;;;;;12.31;100.00;96861.81;6288676;22;20003;-75
2023/10/02 01:18:35;;;;;;;15.93;13.00;;;;;;;12.30;100.00;96854.00;6313265;22;20003;-76
2023/10/02 01:21:11;;;;;;;16.35;12.65;;;;;;;12.25;100.00;96857.00;6340989;22;19998;-76
2023/10/02 01:24:08;;;;;;;20.98;13.75;;;;;;;12.26;100.00;96848.13;6340791;22;20045;-76
2023/10/02 01:26:42;;;;;;;17.55;12.68;;;;;;;12.27;100.00;96847.19;6317268;22;19995;-75
2023/10/02 01:29:13;;;;;;;16.15;13.52;;;;;;;12.26;100.00;96842.00;6340747;22;20496;-76
2023/10/02 01:31:51;;;;;;;15.52;13.18;;;;;;;12.24;100.00;96842.13;6313389;22;20435;-76
2023/10/02 01:34:33;;;;;;;17.42;12.80;;;;;;;12.22;100.00;96841.41;6312407;22;20006;-76
2023/10/02 01:37:00;;;;;;;17.73;13.35;;;;;;;12.21;100.00;96839.75;6312659;22;20313;-76
2023/10/02 01:39:26;;;;;;;19.80;13.23;;;;;;;12.17;100.00;96831.25;6312414;22;20002;-76
2023/10/02 01:41:56;;;;;;;17.75;13.90;;;;;;;12.15;100.00;96835.78;6340759;22;19998;-76
2023/10/02 01:44:29;;;;;;;18.05;13.48;;;;;;;12.13;100.00;96834.25;6312430;22;20802;-76
2023/10/02 01:47:04;;;;;;;15.57;12.73;;;;;;;12.06;100.00;96825.97;6287660;22;20003;-76
2023/10/02 01:49:38;;;;;;;17.02;13.48;;;;;;;12.04;100.00;96826.09;6340289;22;20010;-76
2023/10/02 01:52:13;;;;;;;18.13;13.52;;;;;;;12.02;100.00;96821.91;6315196;22;20005;-75
2023/10/02 01:54:40;;;;;;;19.42;13.98;;;;;;;12.03;100.00;96820.94;6340558;22;20001;-75
2023/10/02 01:57:24;;;;;;;19.65;13.75;;;;;;;12.01;100.00;96815.78;6340085;22;19994;-76
2023/10/02 01:59:50;;;;;;;18.02;13.52;;;;;;;12.00;100.00;96821.16;6312372;22;20013;-76
2023/10/02 02:02:15;;;;;;;18.40;13.15;;;;;;;11.96;100.00;96815.28;6341039;22;19999;-75
2023/10/02 02:04:43;;;;;;;18.52;13.25;;;;;;;11.95;100.00;96821.53;6313597;22;19994;-76
2023/10/02 02:07:08;;;;;;;19.25;14.20;;;;;;;11.95;100.00;96818.06;6339901;22;20086;-75
2023/10/02 02:09:37;;;;;;;16.20;13.50;;;;;;;11.93;100.00;96819.97;6340099;22;19998;-76
2023/10/02 02:14:52;;;;;;;15.82;12.88;;;;;;;11.87;100.00;96827.41;6282679;22;20439;-76
2023/10/02 02:17:27;;;;;;;17.25;13.73;;;;;;;11.85;100.00;96828.53;6285737;22;20002;-76
2023/10/02 02:20:06;;;;;;;18.33;13.68;;;;;;;11.84;100.00;96832.13;6282274;22;20067;-76
2023/10/02 02:22:36;;;;;;;18.10;14.05;;;;;;;11.80;100.00;96820.09;6306828;22;20651;-76
2023/10/02 02:25:04;;;;;;;16.27;13.90;;;;;;;11.81;100.00;96819.16;6308615;22;20037;-76
2023/10/02 02:27:30;;;;;;;19.40;13.32;;;;;;;11.82;100.00;96808.47;6282643;22;20025;-76
2023/10/02 02:29:57;;;;;;;15.80;12.60;;;;;;;11.82;100.00;96813.75;6282025;22;19992;-76
2023/10/02 02:32:36;;;;;;;16.63;13.23;;;;;;;11.79;100.00;96797.31;6307961;22;20063;-76
2023/10/02 02:35:09;;;;;;;14.75;12.82;;;;;;;11.75;100.00;96797.56;6282707;22;20138;-75
2023/10/02 02:37:34;;;;;;;17.10;13.00;;;;;;;11.75;100.00;96797.56;6308881;22;20001;-75
2023/10/02 02:40:23;;;;;;;17.10;12.93;;;;;;;11.76;100.00;96795.78;6308999;22;20511;-76
2023/10/02 02:42:52;;;;;;;18.73;12.90;;;;;;;11.75;100.00;96789.66;6308498;22;20003;-75
2023/10/02 02:45:29;;;;;;;16.00;12.68;;;;;;;11.75;100.00;96784.38;6284349;22;20010;-75
2023/10/02 02:48:03;;;;;;;19.50;13.30;;;;;;;11.74;100.00;96787.97;6310989;22;20428;-75
2023/10/02 02:50:43;;;;;;;16.08;13.07;;;;;;;11.69;100.00;96781.38;6308178;22;20630;-75
2023/10/02 02:53:30;;;;;;;17.83;13.00;;;;;;;11.65;100.00;96778.19;6283628;22;20007;-76
2023/10/02 02:56:28;;;;;;;16.83;13.15;;;;;;;11.67;100.00;96772.75;6309809;22;19995;-75
2023/10/02 02:59:03;;;;;;;16.50;13.88;;;;;;;11.65;100.00;96769.41;6309043;22;20072;-76
2023/10/02 03:01:34;;;;;;;17.17;12.48;;;;;;;11.66;100.00;96765.81;6309723;22;20011;-75
2023/10/02 03:04:11;;;;;;;15.25;12.45;;;;;;;11.64;100.00;96763.31;6307798;22;19999;-75
2023/10/02 03:06:42;;;;;;;15.02;12.65;;;;;;;11.62;100.00;96767.88;6311367;22;20066;-75
2023/10/02 03:09:08;;;;;;;16.08;12.38;;;;;;;11.59;100.00;96771.59;6283635;22;20546;-76
2023/10/02 03:11:34;;;;;;;18.63;14.10;;;;;;;11.59;100.00;96771.59;6310395;22;19999;-75
2023/10/02 03:14:14;;;;;;;15.50;12.75;;;;;;;11.59;100.00;96771.59;6308120;22;20015;-75
2023/10/02 03:16:45;;;;;;;16.13;12.75;;;;;;;11.57;100.00;96772.66;6309273;22;20006;-75
2023/10/02 03:19:13;;;;;;;17.15;12.07;;;;;;;11.56;100.00;96781.53;6283506;22;19999;-75
2023/10/02 03:21:42;;;;;;;18.08;13.50;;;;;;;11.57;100.00;96770.88;6258008;22;20014;-75
2023/10/02 03:24:08;;;;;;;17.20;12.45;;;;;;;11.57;100.00;96770.00;6309556;22;20075;-75
2023/10/02 03:29:21;;;;;;;17.42;13.48;;;;;;;11.54;100.00;96767.63;6309974;22;20003;-75
2023/10/02 03:31:53;;;;;;;14.60;12.32;;;;;;;11.54;100.00;96762.34;6262939;22;20006;-75
2023/10/02 03:34:30;;;;;;;18.27;13.15;;;;;;;11.54;100.00;96762.34;6308759;22;19999;-75
2023/10/02 03:39:52;;;;;;;15.35;12.63;;;;;;;11.56;100.00;96752.50;6308493;22;20053;-75
2023/10/02 03:42:25;;;;;;;19.05;14.30;;;;;;;11.52;100.00;96756.38;6310428;22;19999;-74
2023/10/02 03:44:58;;;;;;;16.17;13.10;;;;;;;11.50;100.00;96756.50;6310457;22;19995;-74
2023/10/02 03:47:33;;;;;;;17.80;14.18;;;;;;;11.49;100.00;96751.34;6308470;22;19995;-73
2023/10/02 03:50:14;;;;;;;;;;;;;;;;;;;;;
2023/10/02 03:53:12;;;;;;;18.08;15.77;;;;;;;11.46;100.00;96745.34;6309727;22;20070;-74
2023/10/02 03:55:35;;;;;;;15.82;13.32;;;;;;;11.43;100.00;96740.31;6308765;22;19999;-74
2023/10/02 03:58:02;;;;;;;16.98;12.10;;;;;;;11.44;100.00;96741.16;6309683;22;20101;-74
2023/10/02 04:00:43;;;;;;;15.27;12.50;;;;;;;11.44;100.00;96738.50;6309300;22;20007;-74
2023/10/02 04:03:15;;;;;;;15.95;12.40;;;;;;;11.44;100.00;96733.22;6308397;22;20000;-74
2023/10/02 04:05:44;;;;;;;15.30;12.88;;;;;;;11.45;100.00;96738.41;6310012;22;20376;-74
2023/10/02 04:11:03;;;;;;;13.90;11.90;;;;;;;11.45;100.00;96737.53;6310111;22;20003;-74
2023/10/02 04:13:33;;;;;;;15.40;12.70;;;;;;;11.43;100.00;96732.41;6285545;22;20046;-74
2023/10/02 04:18:46;;;;;;;18.25;13.75;;;;;;;11.39;100.00;96733.63;6308933;22;20060;-74
2023/10/02 04:21:19;;;;;;;16.38;12.80;;;;;;;11.40;100.00;96732.66;6309373;22;20008;-74
2023/10/02 04:23:47;;;;;;;15.68;12.90;;;;;;;11.41;100.00;96734.34;6309926;22;20596;-73
2023/10/02 04:26:20;;;;;;;17.35;13.13;;;;;;;11.39;100.00;96728.34;6308367;22;20034;-74
2023/10/02 04:28:55;;;;;;;16.48;12.60;;;;;;;11.42;100.00;96729.88;6307960;22;20082;-74
2023/10/02 04:31:34;;;;;;;17.25;13.38;;;;;;;11.44;100.00;96725.31;6283486;22;20317;-74
2023/10/02 04:34:23;;;;;;;42.38;33.28;;;;;;;11.45;100.00;96727.84;6283522;22;20006;-74
2023/10/02 04:36:49;;;;;;;20.70;15.90;;;;;;;11.43;100.00;96724.50;6284683;22;20034;-74
2023/10/02 04:42:19;;;;;;;16.52;14.18;;;;;;;11.40;100.00;96726.53;6308360;22;20513;-74
2023/10/02 04:44:47;;;;;;;20.25;13.65;;;;;;;11.36;100.00;96731.19;6307953;22;20011;-74
2023/10/02 04:47:26;;;;;;;14.75;12.93;;;;;;;11.38;100.00;96731.09;6307426;22;20006;-74
2023/10/02 04:50:34;;;;;;;15.05;12.57;;;;;;;11.36;100.00;96725.94;6282030;22;20387;-74
2023/10/02 04:52:56;;;;;;;17.38;12.80;;;;;;;11.33;100.00;96723.53;6309450;22;20003;-73
2023/10/02 04:55:32;;;;;;;20.02;13.35;;;;;;;11.36;100.00;96722.47;6283898;22;19999;-74
2023/10/02 04:58:09;;;;;;;16.40;13.00;;;;;;;11.36;100.00;96720.66;6283791;22;20010;-74
2023/10/02 05:03:30;;;;;;;15.82;12.88;;;;;;;11.29;100.00;96714.19;6311911;22;20010;-74
2023/10/02 05:05:59;;;;;;;14.77;12.60;;;;;;;11.27;100.00;96718.75;6260813;22;20003;-74
2023/10/02 05:11:24;;;;;;;20.75;13.23;;;;;;;11.15;100.00;96718.75;6311591;22;20044;-74
2023/10/02 05:14:13;;;;;;;16.48;12.23;;;;;;;11.19;100.00;96724.63;6291299;22;20022;-73
2023/10/02 05:16:40;;;;;;;18.77;11.93;;;;;;;11.22;100.00;96715.66;6342600;22;20010;-74
2023/10/02 05:19:07;;;;;;;19.08;12.82;;;;;;;11.23;100.00;96725.22;6341458;22;20107;-74
2023/10/02 05:21:59;;;;;;;15.27;12.35;;;;;;;11.25;100.00;96723.31;6339243;22;19999;-74
2023/10/02 05:24:34;;;;;;;17.42;13.23;;;;;;;11.21;100.00;96713.97;6311831;22;20351;-77
2023/10/02 05:27:04;;;;;;;16.08;12.25;;;;;;;11.22;100.00;96728.84;6288733;22;20034;-74
2023/10/02 05:29:41;;;;;;;16.40;12.52;;;;;;;11.21;100.00;96729.78;6261505;22;20317;-74
2023/10/02 05:32:29;;;;;;;19.52;12.73;;;;;;;11.17;100.00;96719.50;6316703;22;20009;-74
2023/10/02 05:37:40;;;;;;;17.00;12.30;;;;;;;11.17;100.00;96730.03;6316196;22;20003;-74
2023/10/02 05:43:09;;;;;;;15.43;12.10;;;;;;;11.17;100.00;96730.03;6342091;22;20348;-73
2023/10/02 05:45:50;;;;;;;15.93;12.00;;;;;;;11.17;100.00;96730.03;6314104;22;20026;-72
2023/10/02 05:50:54;;;;;;;19.58;13.18;;;;;;;11.14;100.00;96730.25;6340067;22;20002;-74
2023/10/02 05:53:34;;;;;;;15.27;12.52;;;;;;;11.16;100.00;96738.91;6306651;22;20014;-79
2023/10/02 05:58:36;;;;;;;17.95;14.05;;;;;;;11.16;100.00;96731.00;6341681;22;20233;-73
2023/10/02 06:01:06;;;;;;;17.73;13.60;;;;;;;11.17;100.00;96739.72;6314345;22;20594;-76
2023/10/02 06:03:37;;;;;;;17.50;13.30;;;;;;;11.14;100.00;96739.97;6341256;22;20347;-72
2023/10/02 06:06:21;;;;;;;17.42;12.95;;;;;;;11.15;100.00;96736.38;6341128;22;20010;-73
2023/10/02 06:09:03;;;;;;;20.98;13.57;;;;;;;11.13;100.00;96741.75;6289427;22;20029;-73
2023/10/02 06:14:38;;;;;;;15.07;12.45;;;;;;;11.25;100.00;96741.75;6339526;22;20029;-73
2023/10/02 06:17:11;;;;;;;19.67;13.27;;;;;;;11.24;100.00;96748.81;6313024;22;20609;-75
2023/10/02 06:19:43;;;;;;;16.30;12.70;;;;;;;11.27;100.00;96745.13;6341000;22;19999;-73
2023/10/02 06:22:15;;;;;;;16.83;13.20;;;;;;;11.30;100.00;96743.09;6312135;22;20013;-73
2023/10/02 06:24:42;;;;;;;24.52;13.77;;;;;;;11.34;100.00;96742.84;6339535;22;19995;-73
2023/10/02 06:27:41;;;;;;;17.85;12.30;;;;;;;11.34;100.00;96729.66;6341122;22;19998;-72
2023/10/02 06:29:57;;;;;;;20.33;13.00;;;;;;;11.39;100.00;96728.34;6336982;22;20414;-73
2023/10/02 06:32:23;;;;;;;16.90;13.43;;;;;;;11.43;100.00;96729.78;6312953;22;20602;-73
2023/10/02 06:34:56;;;;;;;15.85;13.10;;;;;;;11.46;100.00;96724.25;6339061;22;20014;-72
2023/10/02 06:37:35;;;;;;;15.50;13.38;;;;;;;11.50;100.00;96731.91;6341736;22;20007;-72
2023/10/02 06:40:14;;;;;;;17.33;13.00;;;;;;;11.54;100.00;96730.69;6316930;22;20020;-73
2023/10/02 06:43:02;;;;;;;17.73;13.30;;;;;;;11.56;100.00;96734.91;6342089;22;20012;-72
2023/10/02 06:45:30;;;;;;;19.30;12.75;;;;;;;11.56;100.00;96734.06;6291863;22;20010;-72
2023/10/02 06:47:59;;;;;;;15.93;12.07;;;;;;;11.56;100.00;96737.53;6341734;22;20037;-72
2023/10/02 06:50:29;;;;;;;18.13;13.40;;;;;;;11.59;100.00;96739.94;6341989;22;19999;-72
2023/10/02 06:52:57;;;;;;;19.70;14.10;;;;;;;11.63;100.00;96739.69;6314306;22;20010;-72
2023/10/02 06:55:24;;;;;;;18.48;13.35;;;;;;;11.66;100.00;96740.28;6341354;22;19999;-72
2023/10/02 06:57:57;;;;;;;25.80;15.43;;;;;;;11.65;100.00;96727.22;6314214;22;20006;-72
2023/10/02 07:00:36;;;;;;;24.42;17.65;;;;;;;11.65;100.00;96732.47;6313850;22;20003;-72
2023/10/02 07:03:03;;;;;;;19.77;15.70;;;;;;;11.68;100.00;96738.38;6340769;22;19999;-72
2023/10/02 07:05:33;;;;;;;24.17;16.85;;;;;;;11.71;100.00;96734.63;6312264;22;20013;-72
2023/10/02 07:09:09;;;;;;;23.00;15.20;;;;;;;11.74;100.00;96737.84;6289504;22;19999;-72
2023/10/02 07:10:52;;;;;;;17.50;14.82;;;;;;;11.79;100.00;96726.09;6312552;22;19999;-72
2023/10/02 07:13:25;;;;;;;19.65;14.13;;;;;;;11.82;100.00;96729.34;6287514;22;20034;-71
2023/10/02 07:15:59;;;;;;;19.92;14.20;;;;;;;11.85;100.00;96725.63;6313076;22;20044;-72
2023/10/02 07:18:37;;;;;;;21.65;14.65;;;;;;;11.86;100.00;96722.00;6337158;22;19999;-72
2023/10/02 07:21:09;;;;;;;23.60;14.57;;;;;;;11.89;100.00;96725.22;6340338;22;20006;-72
2023/10/02 07:23:39;;;;;;;24.92;14.05;;;;;;;11.93;100.00;96725.81;6340432;22;20002;-72
2023/10/02 07:26:13;;;;;;;20.35;15.07;;;;;;;12.00;100.00;96724.34;6340587;22;19998;-72
2023/10/02 07:28:50;;;;;;;18.60;13.07;;;;;;;12.17;100.00;96719.53;6312802;22;20056;-72
2023/10/02 07:31:27;;;;;;;20.08;14.07;;;;;;;12.35;100.00;96721.59;6289121;22;20060;-72
2023/10/02 07:34:02;;;;;;;21.92;13.70;;;;;;;12.52;100.00;96726.31;6313888;22;20021;-72
2023/10/02 07:36:44;;;;;;;21.80;12.98;;;;;;;12.67;100.00;96725.97;6340176;22;20005;-72
2023/10/02 07:39:35;;;;;;;15.18;12.60;;;;;;;12.81;100.00;96727.44;6338609;22;20485;-72
2023/10/02 07:42:00;;;;;;;16.40;12.85;;;;;;;12.91;100.00;96725.72;6316951;22;20060;-71
2023/10/02 07:44:36;;;;;;;15.43;12.45;;;;;;;13.03;100.00;96726.47;6312506;22;19994;-72
2023/10/02 07:47:10;;;;;;;14.82;12.60;;;;;;;13.16;100.00;96728.88;6291001;22;20002;-72
2023/10/02 07:49:44;;;;;;;17.05;13.02;;;;;;;13.29;100.00;96720.72;6340089;22;20494;-72
2023/10/02 07:52:35;;;;;;;15.80;12.75;;;;;;;13.44;100.00;96724.72;6311799;22;20495;-72
2023/10/02 07:55:10;;;;;;;16.10;12.48;;;;;;;13.53;100.00;96733.66;6317483;22;20030;-73
2023/10/02 07:57:38;;;;;;;16.00;12.35;;;;;;;13.61;100.00;96739.09;6340549;22;20062;-72
2023/10/02 08:00:55;;;;;;;16.73;12.27;;;;;;;13.72;100.00;96740.78;6340719;22;20006;-72
2023/10/02 08:03:02;;;;;;;14.75;11.52;;;;;;;13.86;100.00;96742.19;6318109;22;20029;-72
2023/10/02 08:05:35;;;;;;;15.20;11.13;;;;;;;13.98;100.00;96744.75;6287095;22;20574;-72
2023/10/02 08:08:10;;;;;;;14.80;11.63;;;;;;;14.15;100.00;96743.22;6287348;22;20005;-72
2023/10/02 08:10:52;;;;;;;14.73;11.57;;;;;;;14.43;100.00;96751.31;6338724;22;20070;-72
2023/10/02 08:13:33;;;;;;;14.48;11.30;;;;;;;14.66;100.00;96753.66;6294718;22;19998;-72
2023/10/02 08:16:01;;;;;;;14.00;11.32;;;;;;;14.83;100.00;96755.63;6340487;22;19998;-72
2023/10/02 08:18:28;;;;;;;14.27;11.20;;;;;;;14.93;100.00;96775.97;6312537;22;20339;-72
2023/10/02 08:21:05;;;;;;;13.73;11.02;;;;;;;15.05;100.00;96774.81;6340003;22;20007;-73
2023/10/02 08:23:31;;;;;;;13.88;10.55;;;;;;;15.17;100.00;96779.00;6313161;22;20355;-72
2023/10/02 08:26:07;;;;;;;12.70;11.38;;;;;;;15.26;100.00;96792.34;6340111;22;19999;-72
2023/10/02 08:28:33;;;;;;;12.60;10.60;;;;;;;15.45;100.00;96799.41;6340324;22;20343;-72
2023/10/02 08:31:13;;;;;;;12.70;10.85;;;;;;;15.61;100.00;96806.75;6341179;22;20018;-72
2023/10/02 08:33:43;;;;;;;15.52;11.27;;;;;;;15.70;100.00;96802.41;6340854;22;20044;-72
2023/10/02 08:36:12;;;;;;;17.45;11.02;;;;;;;15.78;100.00;96814.91;6341628;22;20026;-72
2023/10/02 08:38:40;;;;;;;16.95;10.57;;;;;;;15.85;100.00;96823.97;6315309;22;19995;-70
2023/10/02 08:41:08;;;;;;;16.13;10.52;;;;;;;15.96;100.00;96834.41;6314719;22;20007;-72
2023/10/02 08:43:45;;;;;;;12.43;9.63;;;;;;;16.03;100.00;96840.84;6289951;22;20037;-72
2023/10/02 08:46:21;;;;;;;13.20;10.82;;;;;;;16.09;100.00;96859.81;6341257;22;20078;-73
2023/10/02 08:49:03;;;;;;;11.38;9.90;;;;;;;16.11;100.00;96871.13;6266974;22;20014;-72
2023/10/02 08:51:48;;;;;;;15.13;10.52;;;;;;;16.15;100.00;96872.50;6341444;22;20448;-73
2023/10/02 08:54:27;;;;;;;13.65;9.80;;;;;;;16.25;100.00;96881.25;6312769;22;20454;-72
2023/10/02 08:57:10;;;;;;;14.07;10.25;;;;;;;16.32;100.00;96882.34;6289784;22;20024;-73
2023/10/02 08:59:42;;;;;;;14.50;10.65;;;;;;;16.45;100.00;96858.06;6314610;22;20055;-72
2023/10/02 09:02:15;;;;;;;14.57;10.05;;;;;;;16.65;100.00;96867.69;6315072;22;20003;-73
2023/10/02 09:05:13;;;;;;;12.93;10.48;;;;;;;16.93;100.00;96868.47;6341378;22;20037;-72
2023/10/02 09:10:24;;;;;;;15.60;10.73;;;;;;;17.32;100.00;96873.47;6341404;22;20086;-73
2023/10/02 09:13:17;;;;;;;14.93;10.27;;;;;;;17.44;100.00;96871.38;6317405;22;20896;-73
2023/10/02 09:15:48;;;;;;;13.85;10.85;;;;;;;17.46;100.00;96866.72;6310826;22;20011;-72
2023/10/02 09:19:28;;;;;;;15.65;10.52;;;;;;;17.40;100.00;96859.38;6310059;22;20060;-72
2023/10/02 09:21:44;;;;;;;13.43;10.20;;;;;;;17.44;100.00;96867.88;6293075;22;20071;-72
2023/10/02 09:24:27;;;;;;;12.07;9.32;;;;;;;17.51;100.00;96858.28;6282165;22;20003;-72
2023/10/02 09:27:20;;;;;;;11.88;9.68;;;;;;;17.63;100.00;96850.00;6282769;22;20029;-72
2023/10/02 09:29:45;;;;;;;13.73;10.32;;;;;;;17.68;100.00;96853.88;6286989;22;19999;-72
2023/10/02 09:32:21;;;;;;;13.93;9.95;;;;;;;17.79;100.00;96843.91;6282166;22;20060;-72
2023/10/02 09:35:10;;;;;;;14.10;10.07;;;;;;;17.89;100.00;96842.81;6309660;22;20070;-73
2023/10/02 09:37:45;;;;;;;12.35;10.00;;;;;;;17.90;100.00;96833.00;6310466;22;20019;-72
2023/10/02 09:40:17;;;;;;;10.80;9.13;;;;;;;17.96;100.00;96823.53;6282181;22;20014;-72
2023/10/02 09:42:49;;;;;;;13.82;9.52;;;;;;;18.08;100.00;96826.78;6310246;22;20078;-73
2023/10/02 09:45:15;;;;;;;12.43;9.90;;;;;;;18.21;100.00;96827.13;6310143;22;20443;-72
2023/10/02 09:47:44;;;;;;;13.00;9.85;;;;;;;18.34;100.00;96813.34;6282171;22;20011;-72
2023/10/02 09:50:26;;;;;;;12.32;9.45;;;;;;;18.44;100.00;96803.38;6257917;22;20211;-72
2023/10/02 09:53:16;;;;;;;13.45;10.65;;;;;;;18.51;100.00;96771.56;6235386;22;20028;-73
2023/10/02 09:55:41;;;;;;;12.05;9.88;;;;;;;18.64;100.00;96762.22;6282996;22;20003;-72
2023/10/02 09:58:27;;;;;;;14.65;10.68;;;;;;;18.75;100.00;96748.56;6309954;22;20003;-72
2023/10/02 10:03:55;;;;;;;11.38;9.07;;;;;;;18.99;100.00;96749.56;6310453;22;20007;-72
2023/10/02 10:06:48;;;;;;;12.05;9.60;;;;;;;19.08;100.00;96735.19;6282481;22;20075;-72
2023/10/02 10:09:25;;;;;;;11.20;8.65;;;;;;;19.12;100.00;96739.19;6283463;22;20491;-72
2023/10/02 10:15:25;;;;;;;16.02;9.90;;;;;;;19.26;100.00;96755.50;6209558;23;20023;-73
2023/10/02 10:17:51;;;;;;;13.00;9.98;;;;;;;19.26;100.00;96723.47;6189883;23;20000;-72
2023/10/02 10:20:23;;;;;;;13.23;9.48;;;;;;;19.31;100.00;96718.44;6275250;22;20078;-72
2023/10/02 10:22:56;;;;;;;15.73;10.38;;;;;;;19.40;100.00;96728.09;6310485;22;20022;-72
2023/10/02 10:28:24;;;;;;;12.82;10.02;;;;;;;19.59;100.00;96755.41;6311354;22;20007;-73
2023/10/02 10:30:46;;;;;;;13.13;9.17;;;;;;;19.75;100.00;96752.66;6305304;22;20603;-72
2023/10/02 10:35:48;;;;;;;12.23;9.05;;;;;;;19.92;100.00;96733.91;6310119;22;20007;-72
2023/10/02 10:38:28;;;;;;;13.77;9.75;;;;;;;20.07;100.00;96733.97;6309011;22;19999;-73
2023/10/02 10:41:06;;;;;;;12.38;9.27;;;;;;;20.21;100.00;96735.06;6310744;22;20003;-73
2023/10/02 10:44:19;;;;;;;9.68;8.68;;;;;;;20.44;100.00;96723.53;6309486;22;20026;-75
2023/10/02 10:46:31;;;;;;;13.60;8.95;;;;;;;20.56;100.00;96711.41;6288504;22;20470;-76
2023/10/02 10:49:36;;;;;;;10.48;9.10;;;;;;;20.72;100.00;96720.31;6310230;22;20007;-76
2023/10/02 10:52:24;;;;;;;13.82;9.82;;;;;;;20.88;100.00;96717.50;6304563;22;20312;-76
2023/10/02 10:54:47;;;;;;;10.15;8.82;;;;;;;21.00;100.00;96714.38;6310039;22;20561;-76
2023/10/02 10:57:29;;;;;;;11.93;9.38;;;;;;;21.11;100.00;96710.41;6283399;22;20003;-75
2023/10/02 11:00:24;;;;;;;11.57;8.55;;;;;;;21.24;100.00;96707.94;6308271;22;20420;-74
2023/10/02 11:03:10;;;;;;;14.38;9.50;;;;;;;21.34;100.00;96694.28;6286679;22;20003;-75
2023/10/02 11:05:37;;;;;;;16.50;9.40;;;;;;;21.47;100.00;96689.06;6309736;22;20003;-73
2023/10/02 11:08:25;;;;;;;10.80;8.77;;;;;;;21.55;100.00;96703.38;6307553;22;20003;-74
2023/10/02 11:11:19;;;;;;;12.98;9.32;;;;;;;21.67;100.00;96693.88;6310180;22;20069;-77
2023/10/02 11:14:01;;;;;;;12.05;9.18;;;;;;;21.69;100.00;96686.47;6319171;22;20042;-72
2023/10/02 11:16:36;;;;;;;12.52;9.60;;;;;;;21.74;100.00;96685.94;6339998;22;20011;-71
2023/10/02 11:19:21;;;;;;;12.63;9.23;;;;;;;21.81;100.00;96686.00;6340916;22;19999;-72
2023/10/02 11:22:16;;;;;;;12.05;8.98;;;;;;;21.93;100.00;96671.06;6316231;22;20390;-70
2023/10/02 11:24:48;;;;;;;11.35;9.10;;;;;;;22.06;100.00;96675.75;6340722;22;20006;-71
2023/10/02 11:27:18;;;;;;;13.82;9.45;;;;;;;22.26;100.00;96667.91;6341425;22;20029;-70
2023/10/02 11:30:05;;;;;;;14.38;9.70;;;;;;;22.43;100.00;96654.19;6340049;22;20024;-70
2023/10/02 11:32:53;;;;;;;12.10;9.32;;;;;;;22.51;100.00;96632.66;6290763;22;20037;-75
2023/10/02 11:35:29;;;;;;;10.43;8.77;;;;;;;22.54;100.00;96618.84;6288991;22;19998;-73
2023/10/02 11:38:09;;;;;;;11.18;9.30;;;;;;;22.56;100.00;96616.78;6313641;22;20006;-74
2023/10/02 11:40:35;;;;;;;10.63;8.90;;;;;;;22.59;100.00;96608.34;6313501;22;20018;-75
2023/10/02 11:43:01;;;;;;;13.13;8.98;;;;;;;22.71;100.00;96602.44;6340359;22;20069;-74
2023/10/02 11:45:29;;;;;;;12.18;9.80;;;;;;;22.74;100.00;96608.22;6340718;22;20018;-74
2023/10/02 11:47:59;;;;;;;10.25;9.15;;;;;;;22.76;100.00;96605.38;6339771;22;20078;-72
2023/10/02 11:50:25;;;;;;;11.95;9.02;;;;;;;22.70;100.00;96598.91;6340637;22;20347;-74
2023/10/02 11:52:51;;;;;;;10.15;8.52;;;;;;;22.73;100.00;96603.88;6312414;22;19999;-75
2023/10/02 11:55:18;;;;;;;13.82;9.68;;;;;;;22.69;100.00;96613.38;6340495;22;19999;-74
2023/10/02 11:57:56;;;;;;;13.73;9.80;;;;;;;22.80;100.00;96603.94;6341336;22;19998;-75
2023/10/02 12:00:24;;;;;;;13.48;8.95;;;;;;;22.96;100.00;96585.84;6314968;22;20003;-75
2023/10/02 12:02:52;;;;;;;9.43;8.30;;;;;;;23.07;100.00;96579.91;6314043;22;19999;-75
2023/10/02 12:05:18;;;;;;;10.77;8.18;;;;;;;23.21;100.00;96578.13;6340972;22;20051;-74
2023/10/02 12:07:44;;;;;;;12.93;9.80;;;;;;;23.32;100.00;96576.72;6340000;22;20067;-75
2023/10/02 12:10:15;;;;;;;13.65;8.85;;;;;;;23.21;100.00;96572.75;6314343;22;20006;-75
2023/10/02 12:12:45;;;;;;;13.27;9.23;;;;;;;23.31;100.00;96575.91;6316646;22;19995;-76
2023/10/02 12:15:14;;;;;;;11.75;9.68;;;;;;;23.32;100.00;96571.34;6343222;22;20041;-76
2023/10/02 12:17:47;;;;;;;11.15;8.55;;;;;;;23.43;100.00;96569.94;6343175;22;20009;-74
2023/10/02 12:20:16;;;;;;;12.23;8.63;;;;;;;23.49;100.00;96579.06;6343187;22;20056;-76
2023/10/02 12:22:47;;;;;;;11.20;8.90;;;;;;;23.44;100.00;96567.06;6342933;22;19995;-75
2023/10/02 12:25:14;;;;;;;12.77;9.10;;;;;;;23.49;100.00;96576.38;6315532;22;20002;-72
2023/10/02 12:27:40;;;;;;;11.18;8.88;;;;;;;23.67;100.00;96557.00;6340923;22;20002;-75
2023/10/02 12:30:13;;;;;;;16.13;9.27;;;;;;;23.84;100.00;96562.81;6342998;22;19998;-76
2023/10/02 12:32:49;;;;;;;12.55;8.38;;;;;;;24.01;100.00;96556.03;6342061;22;20021;-76
2023/10/02 12:35:16;;;;;;;16.20;10.05;;;;;;;24.08;100.00;96563.25;6293023;22;20070;-75
2023/10/02 12:37:46;;;;;;;13.98;9.00;;;;;;;24.21;100.00;96555.22;6314991;22;20006;-75